sensor_id;sensor_type;location;lat;lon;timestamp;P1;durP1;ratioP1;P2;durP2;ratioP2
27127;SDS011;14660;49.008;8.390;2022-12-29T00:00:16;1.75;;;0.98;;
27127;SDS011;14660;49.008;8.390;2022-12-29T00:02:43;3.35;;;0.95;;
27127;SDS011;14660;49.008;8.390;2022-12-29T00:05:10;1.85;;;1.40;;
27127;SDS011;14660;49.008;8.390;2022-12-29T00:07:36;1.60;;;0.90;;
27127;SDS011;14660;49.008;8.390;2022-12-29T00:10:03;1.67;;;1.10;;
27127;SDS011;14660;49.008;8.390;2022-12-29T00:12:30;1.67;;;1.10;;
27127;SDS011;14660;49.008;8.390;2022-12-29T00:15:17;5.32;;;1.52;;
27127;SDS011;14660;49.008;8.390;2022-12-29T00:18:02;2.70;;;1.23;;
27127;SDS011;14660;49.008;8.390;2022-12-29T00:20:32;3.85;;;1.83;;
27127;SDS011;14660;49.008;8.390;2022-12-29T00:23:19;1.70;;;0.93;;
27127;SDS011;14660;49.008;8.390;2022-12-29T00:26:08;2.30;;;1.05;;
27127;SDS011;14660;49.008;8.390;2022-12-29T00:28:58;3.00;;;1.45;;
27127;SDS011;14660;49.008;8.390;2022-12-29T00:31:44;1.52;;;0.98;;
27127;SDS011;14660;49.008;8.390;2022-12-29T00:34:29;3.53;;;1.33;;
27127;SDS011;14660;49.008;8.390;2022-12-29T00:37:15;4.45;;;1.25;;
27127;SDS011;14660;49.008;8.390;2022-12-29T00:39:43;1.67;;;0.98;;
27127;SDS011;14660;49.008;8.390;2022-12-29T00:42:46;2.88;;;1.20;;
27127;SDS011;14660;49.008;8.390;2022-12-29T00:45:30;2.63;;;1.08;;
27127;SDS011;14660;49.008;8.390;2022-12-29T00:47:56;1.73;;;0.85;;
27127;SDS011;14660;49.008;8.390;2022-12-29T00:50:23;2.03;;;1.00;;
27127;SDS011;14660;49.008;8.390;2022-12-29T00:52:50;3.35;;;0.88;;
27127;SDS011;14660;49.008;8.390;2022-12-29T00:55:17;2.92;;;0.93;;
27127;SDS011;14660;49.008;8.390;2022-12-29T00:57:43;1.80;;;0.98;;
27127;SDS011;14660;49.008;8.390;2022-12-29T01:00:11;2.67;;;1.23;;
27127;SDS011;14660;49.008;8.390;2022-12-29T01:02:38;2.08;;;1.15;;
27127;SDS011;14660;49.008;8.390;2022-12-29T01:05:04;4.40;;;1.67;;
27127;SDS011;14660;49.008;8.390;2022-12-29T01:07:31;2.63;;;1.60;;
27127;SDS011;14660;49.008;8.390;2022-12-29T01:09:59;2.40;;;1.77;;
27127;SDS011;14660;49.008;8.390;2022-12-29T01:12:36;2.20;;;1.00;;
27127;SDS011;14660;49.008;8.390;2022-12-29T01:15:12;2.45;;;1.02;;
27127;SDS011;14660;49.008;8.390;2022-12-29T01:17:40;3.40;;;1.42;;
27127;SDS011;14660;49.008;8.390;2022-12-29T01:20:07;2.22;;;1.23;;
27127;SDS011;14660;49.008;8.390;2022-12-29T01:22:35;2.55;;;1.15;;
27127;SDS011;14660;49.008;8.390;2022-12-29T01:25:02;1.27;;;1.02;;
27127;SDS011;14660;49.008;8.390;2022-12-29T01:27:29;2.40;;;1.00;;
27127;SDS011;14660;49.008;8.390;2022-12-29T01:29:56;3.28;;;1.33;;
27127;SDS011;14660;49.008;8.390;2022-12-29T01:32:23;2.15;;;1.48;;
27127;SDS011;14660;49.008;8.390;2022-12-29T01:34:49;3.72;;;0.85;;
27127;SDS011;14660;49.008;8.390;2022-12-29T01:37:16;1.55;;;1.02;;
27127;SDS011;14660;49.008;8.390;2022-12-29T01:39:43;3.70;;;1.15;;
27127;SDS011;14660;49.008;8.390;2022-12-29T01:42:14;1.38;;;1.05;;
27127;SDS011;14660;49.008;8.390;2022-12-29T01:53:15;1.98;;;1.08;;
27127;SDS011;14660;49.008;8.390;2022-12-29T01:55:51;1.90;;;1.08;;
27127;SDS011;14660;49.008;8.390;2022-12-29T01:58:22;3.08;;;1.63;;
27127;SDS011;14660;49.008;8.390;2022-12-29T02:00:50;1.42;;;1.27;;
27127;SDS011;14660;49.008;8.390;2022-12-29T02:03:17;3.65;;;1.45;;
27127;SDS011;14660;49.008;8.390;2022-12-29T02:05:55;3.22;;;1.17;;
27127;SDS011;14660;49.008;8.390;2022-12-29T02:08:26;3.00;;;1.30;;
27127;SDS011;14660;49.008;8.390;2022-12-29T02:10:55;2.65;;;1.35;;
27127;SDS011;14660;49.008;8.390;2022-12-29T02:13:27;2.50;;;1.10;;
27127;SDS011;14660;49.008;8.390;2022-12-29T02:46:10;1.60;;;0.80;;
27127;SDS011;14660;49.008;8.390;2022-12-29T02:49:05;2.65;;;0.95;;
27127;SDS011;14660;49.008;8.390;2022-12-29T02:51:35;3.60;;;1.10;;
27127;SDS011;14660;49.008;8.390;2022-12-29T02:54:20;2.10;;;1.02;;
27127;SDS011;14660;49.008;8.390;2022-12-29T03:00:13;2.40;;;1.13;;
27127;SDS011;14660;49.008;8.390;2022-12-29T03:11:18;1.60;;;1.05;;
27127;SDS011;14660;49.008;8.390;2022-12-29T03:20:06;4.50;;;0.82;;
27127;SDS011;14660;49.008;8.390;2022-12-29T03:22:38;1.60;;;0.68;;
27127;SDS011;14660;49.008;8.390;2022-12-29T03:25:14;2.25;;;0.70;;
27127;SDS011;14660;49.008;8.390;2022-12-29T03:27:55;1.40;;;0.70;;
27127;SDS011;14660;49.008;8.390;2022-12-29T03:30:28;1.17;;;0.75;;
27127;SDS011;14660;49.008;8.390;2022-12-29T03:32:57;5.70;;;1.17;;
27127;SDS011;14660;49.008;8.390;2022-12-29T03:35:28;1.70;;;0.93;;
27127;SDS011;14660;49.008;8.390;2022-12-29T03:41:02;2.50;;;1.00;;
27127;SDS011;14660;49.008;8.390;2022-12-29T03:43:34;2.92;;;0.93;;
27127;SDS011;14660;49.008;8.390;2022-12-29T03:46:01;1.67;;;0.85;;
27127;SDS011;14660;49.008;8.390;2022-12-29T03:48:28;2.38;;;0.80;;
27127;SDS011;14660;49.008;8.390;2022-12-29T03:50:55;3.95;;;0.90;;
27127;SDS011;14660;49.008;8.390;2022-12-29T03:53:21;2.55;;;0.68;;
27127;SDS011;14660;49.008;8.390;2022-12-29T03:55:48;3.63;;;0.82;;
27127;SDS011;14660;49.008;8.390;2022-12-29T03:58:15;3.47;;;1.00;;
27127;SDS011;14660;49.008;8.390;2022-12-29T04:00:42;1.20;;;0.55;;
27127;SDS011;14660;49.008;8.390;2022-12-29T04:03:09;1.98;;;1.10;;
27127;SDS011;14660;49.008;8.390;2022-12-29T04:05:36;1.08;;;0.90;;
27127;SDS011;14660;49.008;8.390;2022-12-29T04:08:02;1.65;;;0.82;;
27127;SDS011;14660;49.008;8.390;2022-12-29T04:10:29;2.67;;;0.90;;
27127;SDS011;14660;49.008;8.390;2022-12-29T04:12:56;3.17;;;1.00;;
27127;SDS011;14660;49.008;8.390;2022-12-29T04:15:23;1.77;;;1.10;;
27127;SDS011;14660;49.008;8.390;2022-12-29T04:17:50;2.28;;;0.77;;
27127;SDS011;14660;49.008;8.390;2022-12-29T04:20:17;3.90;;;1.13;;
27127;SDS011;14660;49.008;8.390;2022-12-29T04:23:02;2.20;;;0.80;;
27127;SDS011;14660;49.008;8.390;2022-12-29T04:25:31;1.92;;;0.80;;
27127;SDS011;14660;49.008;8.390;2022-12-29T04:27:58;3.42;;;1.10;;
27127;SDS011;14660;49.008;8.390;2022-12-29T04:30:25;2.85;;;0.88;;
27127;SDS011;14660;49.008;8.390;2022-12-29T04:32:53;1.52;;;0.85;;
27127;SDS011;14660;49.008;8.390;2022-12-29T04:35:20;2.53;;;0.75;;
27127;SDS011;14660;49.008;8.390;2022-12-29T04:37:47;2.97;;;1.00;;
27127;SDS011;14660;49.008;8.390;2022-12-29T04:40:14;3.53;;;1.25;;
27127;SDS011;14660;49.008;8.390;2022-12-29T04:42:41;1.55;;;0.88;;
27127;SDS011;14660;49.008;8.390;2022-12-29T04:45:08;2.42;;;1.10;;
27127;SDS011;14660;49.008;8.390;2022-12-29T04:47:35;2.38;;;1.00;;
27127;SDS011;14660;49.008;8.390;2022-12-29T04:50:02;6.25;;;1.42;;
27127;SDS011;14660;49.008;8.390;2022-12-29T04:52:28;2.42;;;1.00;;
27127;SDS011;14660;49.008;8.390;2022-12-29T04:54:55;1.88;;;0.90;;
27127;SDS011;14660;49.008;8.390;2022-12-29T04:57:22;2.53;;;0.95;;
27127;SDS011;14660;49.008;8.390;2022-12-29T04:59:49;1.20;;;0.82;;
27127;SDS011;14660;49.008;8.390;2022-12-29T05:02:17;2.65;;;1.13;;
27127;SDS011;14660;49.008;8.390;2022-12-29T05:04:44;1.00;;;0.75;;
27127;SDS011;14660;49.008;8.390;2022-12-29T05:07:11;2.28;;;1.00;;
27127;SDS011;14660;49.008;8.390;2022-12-29T05:09:38;2.33;;;1.20;;
27127;SDS011;14660;49.008;8.390;2022-12-29T05:12:05;1.85;;;1.02;;
27127;SDS011;14660;49.008;8.390;2022-12-29T05:14:32;2.88;;;1.20;;
27127;SDS011;14660;49.008;8.390;2022-12-29T05:16:59;2.97;;;1.05;;
27127;SDS011;14660;49.008;8.390;2022-12-29T05:19:26;2.10;;;1.10;;
27127;SDS011;14660;49.008;8.390;2022-12-29T05:21:53;3.05;;;1.00;;
27127;SDS011;14660;49.008;8.390;2022-12-29T05:24:20;4.10;;;1.42;;
27127;SDS011;14660;49.008;8.390;2022-12-29T05:26:47;2.45;;;1.15;;
27127;SDS011;14660;49.008;8.390;2022-12-29T05:29:14;1.90;;;1.13;;
27127;SDS011;14660;49.008;8.390;2022-12-29T05:31:41;5.97;;;1.27;;
27127;SDS011;14660;49.008;8.390;2022-12-29T05:34:10;2.45;;;1.50;;
27127;SDS011;14660;49.008;8.390;2022-12-29T05:36:37;2.67;;;1.55;;
27127;SDS011;14660;49.008;8.390;2022-12-29T05:39:05;3.80;;;1.92;;
27127;SDS011;14660;49.008;8.390;2022-12-29T05:41:34;3.03;;;1.40;;
27127;SDS011;14660;49.008;8.390;2022-12-29T05:44:01;2.10;;;1.20;;
27127;SDS011;14660;49.008;8.390;2022-12-29T05:46:30;2.45;;;1.17;;
27127;SDS011;14660;49.008;8.390;2022-12-29T05:48:58;2.45;;;1.15;;
27127;SDS011;14660;49.008;8.390;2022-12-29T05:51:25;2.60;;;1.23;;
27127;SDS011;14660;49.008;8.390;2022-12-29T05:53:52;5.00;;;1.40;;
27127;SDS011;14660;49.008;8.390;2022-12-29T05:56:19;3.00;;;1.65;;
27127;SDS011;14660;49.008;8.390;2022-12-29T05:58:45;3.38;;;1.15;;
27127;SDS011;14660;49.008;8.390;2022-12-29T06:01:12;2.25;;;1.55;;
27127;SDS011;14660;49.008;8.390;2022-12-29T06:03:39;3.63;;;1.90;;
27127;SDS011;14660;49.008;8.390;2022-12-29T06:06:06;4.70;;;1.20;;
27127;SDS011;14660;49.008;8.390;2022-12-29T06:08:33;2.63;;;1.70;;
27127;SDS011;14660;49.008;8.390;2022-12-29T06:10:59;2.78;;;1.50;;
27127;SDS011;14660;49.008;8.390;2022-12-29T06:13:26;3.63;;;1.52;;
27127;SDS011;14660;49.008;8.390;2022-12-29T06:15:53;2.05;;;1.20;;
27127;SDS011;14660;49.008;8.390;2022-12-29T06:18:20;1.73;;;1.00;;
27127;SDS011;14660;49.008;8.390;2022-12-29T06:20:47;2.30;;;1.38;;
27127;SDS011;14660;49.008;8.390;2022-12-29T06:23:14;6.43;;;1.45;;
27127;SDS011;14660;49.008;8.390;2022-12-29T06:25:41;2.08;;;1.15;;
27127;SDS011;14660;49.008;8.390;2022-12-29T06:28:08;2.75;;;1.65;;
27127;SDS011;14660;49.008;8.390;2022-12-29T06:30:36;2.13;;;0.85;;
27127;SDS011;14660;49.008;8.390;2022-12-29T06:33:04;3.85;;;1.10;;
27127;SDS011;14660;49.008;8.390;2022-12-29T06:35:31;2.45;;;1.40;;
27127;SDS011;14660;49.008;8.390;2022-12-29T06:37:57;3.47;;;1.00;;
27127;SDS011;14660;49.008;8.390;2022-12-29T06:40:24;1.23;;;1.10;;
27127;SDS011;14660;49.008;8.390;2022-12-29T06:42:51;3.38;;;1.20;;
27127;SDS011;14660;49.008;8.390;2022-12-29T06:45:18;2.15;;;1.52;;
27127;SDS011;14660;49.008;8.390;2022-12-29T06:47:45;3.05;;;2.20;;
27127;SDS011;14660;49.008;8.390;2022-12-29T06:50:12;3.95;;;1.52;;
27127;SDS011;14660;49.008;8.390;2022-12-29T06:52:38;2.88;;;1.83;;
27127;SDS011;14660;49.008;8.390;2022-12-29T06:55:05;5.50;;;1.88;;
27127;SDS011;14660;49.008;8.390;2022-12-29T06:57:32;5.43;;;2.13;;
27127;SDS011;14660;49.008;8.390;2022-12-29T06:59:59;3.50;;;1.67;;
27127;SDS011;14660;49.008;8.390;2022-12-29T07:02:26;3.72;;;1.25;;
27127;SDS011;14660;49.008;8.390;2022-12-29T07:04:51;2.78;;;1.77;;
27127;SDS011;14660;49.008;8.390;2022-12-29T07:07:21;3.78;;;1.20;;
27127;SDS011;14660;49.008;8.390;2022-12-29T07:09:49;3.30;;;1.20;;
27127;SDS011;14660;49.008;8.390;2022-12-29T07:12:16;3.05;;;1.45;;
27127;SDS011;14660;49.008;8.390;2022-12-29T07:14:43;2.67;;;1.40;;
27127;SDS011;14660;49.008;8.390;2022-12-29T07:17:10;1.90;;;1.23;;
27127;SDS011;14660;49.008;8.390;2022-12-29T07:19:37;1.58;;;1.30;;
27127;SDS011;14660;49.008;8.390;2022-12-29T07:22:03;3.08;;;1.40;;
27127;SDS011;14660;49.008;8.390;2022-12-29T07:24:30;3.67;;;1.80;;
27127;SDS011;14660;49.008;8.390;2022-12-29T07:26:59;2.33;;;1.55;;
27127;SDS011;14660;49.008;8.390;2022-12-29T07:29:27;3.03;;;1.48;;
27127;SDS011;14660;49.008;8.390;2022-12-29T07:31:53;2.92;;;1.60;;
27127;SDS011;14660;49.008;8.390;2022-12-29T07:34:20;2.53;;;1.50;;
27127;SDS011;14660;49.008;8.390;2022-12-29T07:36:47;4.78;;;1.77;;
27127;SDS011;14660;49.008;8.390;2022-12-29T07:39:14;4.57;;;1.13;;
27127;SDS011;14660;49.008;8.390;2022-12-29T07:41:41;3.00;;;1.45;;
27127;SDS011;14660;49.008;8.390;2022-12-29T07:44:08;2.45;;;1.27;;
27127;SDS011;14660;49.008;8.390;2022-12-29T07:46:35;4.93;;;1.05;;
27127;SDS011;14660;49.008;8.390;2022-12-29T07:49:07;3.13;;;1.55;;
27127;SDS011;14660;49.008;8.390;2022-12-29T07:51:34;3.42;;;2.03;;
27127;SDS011;14660;49.008;8.390;2022-12-29T07:54:01;3.63;;;1.50;;
27127;SDS011;14660;49.008;8.390;2022-12-29T07:56:28;1.63;;;1.27;;
27127;SDS011;14660;49.008;8.390;2022-12-29T07:58:54;4.03;;;1.50;;
27127;SDS011;14660;49.008;8.390;2022-12-29T08:01:21;2.28;;;1.38;;
27127;SDS011;14660;49.008;8.390;2022-12-29T08:03:49;2.60;;;1.20;;
27127;SDS011;14660;49.008;8.390;2022-12-29T08:06:16;2.08;;;0.98;;
27127;SDS011;14660;49.008;8.390;2022-12-29T08:08:44;2.83;;;1.38;;
27127;SDS011;14660;49.008;8.390;2022-12-29T08:11:11;2.80;;;1.33;;
27127;SDS011;14660;49.008;8.390;2022-12-29T08:13:38;2.60;;;0.80;;
27127;SDS011;14660;49.008;8.390;2022-12-29T08:16:05;2.08;;;1.08;;
27127;SDS011;14660;49.008;8.390;2022-12-29T08:18:32;2.13;;;1.30;;
27127;SDS011;14660;49.008;8.390;2022-12-29T08:21:02;3.45;;;2.05;;
27127;SDS011;14660;49.008;8.390;2022-12-29T08:23:29;1.85;;;1.10;;
27127;SDS011;14660;49.008;8.390;2022-12-29T08:25:58;3.53;;;1.15;;
27127;SDS011;14660;49.008;8.390;2022-12-29T08:28:26;2.42;;;1.35;;
27127;SDS011;14660;49.008;8.390;2022-12-29T08:30:52;5.60;;;1.48;;
27127;SDS011;14660;49.008;8.390;2022-12-29T08:33:18;3.22;;;1.48;;
27127;SDS011;14660;49.008;8.390;2022-12-29T08:35:45;3.28;;;1.35;;
27127;SDS011;14660;49.008;8.390;2022-12-29T08:38:12;4.22;;;2.15;;
27127;SDS011;14660;49.008;8.390;2022-12-29T08:40:40;5.57;;;1.33;;
27127;SDS011;14660;49.008;8.390;2022-12-29T08:43:07;4.72;;;3.80;;
27127;SDS011;14660;49.008;8.390;2022-12-29T08:45:34;3.65;;;1.67;;
27127;SDS011;14660;49.008;8.390;2022-12-29T08:48:00;2.47;;;1.40;;
27127;SDS011;14660;49.008;8.390;2022-12-29T08:50:27;3.90;;;1.60;;
27127;SDS011;14660;49.008;8.390;2022-12-29T08:52:54;2.20;;;1.52;;
27127;SDS011;14660;49.008;8.390;2022-12-29T08:55:21;3.15;;;1.63;;
27127;SDS011;14660;49.008;8.390;2022-12-29T08:57:48;1.90;;;1.23;;
27127;SDS011;14660;49.008;8.390;2022-12-29T09:00:15;2.38;;;1.70;;
27127;SDS011;14660;49.008;8.390;2022-12-29T09:02:42;3.00;;;1.55;;
27127;SDS011;14660;49.008;8.390;2022-12-29T09:05:09;3.78;;;1.55;;
27127;SDS011;14660;49.008;8.390;2022-12-29T09:07:36;3.08;;;1.40;;
27127;SDS011;14660;49.008;8.390;2022-12-29T09:10:03;2.90;;;1.33;;
27127;SDS011;14660;49.008;8.390;2022-12-29T09:12:30;2.92;;;1.23;;
27127;SDS011;14660;49.008;8.390;2022-12-29T09:14:57;2.53;;;1.25;;
27127;SDS011;14660;49.008;8.390;2022-12-29T09:17:24;1.92;;;1.00;;
27127;SDS011;14660;49.008;8.390;2022-12-29T09:20:11;2.42;;;1.65;;
27127;SDS011;14660;49.008;8.390;2022-12-29T09:22:39;3.70;;;1.73;;
27127;SDS011;14660;49.008;8.390;2022-12-29T09:25:06;4.15;;;1.20;;
27127;SDS011;14660;49.008;8.390;2022-12-29T09:27:34;2.00;;;1.08;;
27127;SDS011;14660;49.008;8.390;2022-12-29T09:30:03;4.28;;;2.20;;
27127;SDS011;14660;49.008;8.390;2022-12-29T09:32:32;3.33;;;1.20;;
27127;SDS011;14660;49.008;8.390;2022-12-29T09:35:00;2.50;;;1.70;;
27127;SDS011;14660;49.008;8.390;2022-12-29T09:37:26;2.80;;;1.20;;
27127;SDS011;14660;49.008;8.390;2022-12-29T09:39:53;3.42;;;1.45;;
27127;SDS011;14660;49.008;8.390;2022-12-29T09:42:32;3.78;;;1.08;;
27127;SDS011;14660;49.008;8.390;2022-12-29T09:47:59;3.35;;;1.15;;
27127;SDS011;14660;49.008;8.390;2022-12-29T09:50:33;1.50;;;1.15;;
27127;SDS011;14660;49.008;8.390;2022-12-29T09:56:10;1.00;;;0.77;;
27127;SDS011;14660;49.008;8.390;2022-12-29T09:58:43;2.22;;;0.85;;
27127;SDS011;14660;49.008;8.390;2022-12-29T10:04:13;2.15;;;1.45;;
27127;SDS011;14660;49.008;8.390;2022-12-29T10:24:03;5.60;;;1.65;;
27127;SDS011;14660;49.008;8.390;2022-12-29T10:26:42;3.05;;;1.38;;
27127;SDS011;14660;49.008;8.390;2022-12-29T10:29:22;1.70;;;1.02;;
27127;SDS011;14660;49.008;8.390;2022-12-29T10:35:21;3.53;;;1.75;;
27127;SDS011;14660;49.008;8.390;2022-12-29T10:43:52;5.57;;;2.20;;
27127;SDS011;14660;49.008;8.390;2022-12-29T10:46:21;2.90;;;1.20;;
27127;SDS011;14660;49.008;8.390;2022-12-29T10:48:52;1.77;;;1.30;;
27127;SDS011;14660;49.008;8.390;2022-12-29T10:51:29;3.08;;;1.85;;
27127;SDS011;14660;49.008;8.390;2022-12-29T10:54:09;2.13;;;1.20;;
27127;SDS011;14660;49.008;8.390;2022-12-29T10:56:41;5.75;;;1.35;;
27127;SDS011;14660;49.008;8.390;2022-12-29T11:08:32;2.08;;;1.50;;
27127;SDS011;14660;49.008;8.390;2022-12-29T11:11:03;3.55;;;1.30;;
27127;SDS011;14660;49.008;8.390;2022-12-29T11:13:32;2.03;;;1.13;;
27127;SDS011;14660;49.008;8.390;2022-12-29T11:16:41;1.83;;;1.52;;
27127;SDS011;14660;49.008;8.390;2022-12-29T11:19:30;2.75;;;1.58;;
27127;SDS011;14660;49.008;8.390;2022-12-29T11:22:20;2.60;;;1.48;;
27127;SDS011;14660;49.008;8.390;2022-12-29T11:24:48;3.88;;;1.33;;
27127;SDS011;14660;49.008;8.390;2022-12-29T11:30:04;3.63;;;1.27;;
27127;SDS011;14660;49.008;8.390;2022-12-29T11:32:53;2.50;;;1.30;;
27127;SDS011;14660;49.008;8.390;2022-12-29T11:35:31;3.80;;;1.30;;
27127;SDS011;14660;49.008;8.390;2022-12-29T11:38:00;3.33;;;1.30;;
27127;SDS011;14660;49.008;8.390;2022-12-29T11:40:29;4.53;;;1.58;;
27127;SDS011;14660;49.008;8.390;2022-12-29T11:42:58;2.25;;;1.15;;
27127;SDS011;14660;49.008;8.390;2022-12-29T11:45:36;5.40;;;1.35;;
27127;SDS011;14660;49.008;8.390;2022-12-29T11:48:10;3.55;;;1.30;;
27127;SDS011;14660;49.008;8.390;2022-12-29T11:50:55;4.80;;;0.93;;
27127;SDS011;14660;49.008;8.390;2022-12-29T11:56:16;3.45;;;1.40;;
27127;SDS011;14660;49.008;8.390;2022-12-29T12:01:23;1.75;;;0.93;;
27127;SDS011;14660;49.008;8.390;2022-12-29T12:06:47;0.95;;;0.70;;
27127;SDS011;14660;49.008;8.390;2022-12-29T12:09:25;1.42;;;1.10;;
27127;SDS011;14660;49.008;8.390;2022-12-29T12:12:03;1.15;;;0.65;;
27127;SDS011;14660;49.008;8.390;2022-12-29T12:14:34;3.60;;;1.00;;
27127;SDS011;14660;49.008;8.390;2022-12-29T12:17:16;1.50;;;0.82;;
27127;SDS011;14660;49.008;8.390;2022-12-29T12:26:02;3.57;;;0.63;;
27127;SDS011;14660;49.008;8.390;2022-12-29T13:04:27;2.65;;;0.80;;
27127;SDS011;14660;49.008;8.390;2022-12-29T13:34:05;2.78;;;1.25;;
27127;SDS011;14660;49.008;8.390;2022-12-29T13:39:27;1.80;;;0.82;;
27127;SDS011;14660;49.008;8.390;2022-12-29T13:41:59;1.20;;;0.50;;
27127;SDS011;14660;49.008;8.390;2022-12-29T13:50:55;2.22;;;0.95;;
27127;SDS011;14660;49.008;8.390;2022-12-29T14:02:03;1.33;;;0.40;;
27127;SDS011;14660;49.008;8.390;2022-12-29T14:08:00;1.23;;;0.40;;
27127;SDS011;14660;49.008;8.390;2022-12-29T14:13:31;0.75;;;0.43;;
27127;SDS011;14660;49.008;8.390;2022-12-29T14:16:06;1.70;;;0.50;;
27127;SDS011;14660;49.008;8.390;2022-12-29T14:18:40;1.65;;;0.57;;
27127;SDS011;14660;49.008;8.390;2022-12-29T14:24:02;3.03;;;0.93;;
27127;SDS011;14660;49.008;8.390;2022-12-29T14:27:01;1.85;;;0.57;;
27127;SDS011;14660;49.008;8.390;2022-12-29T14:29:50;1.83;;;0.50;;
27127;SDS011;14660;49.008;8.390;2022-12-29T14:41:17;1.38;;;0.45;;
27127;SDS011;14660;49.008;8.390;2022-12-29T14:44:10;1.70;;;0.77;;
27127;SDS011;14660;49.008;8.390;2022-12-29T14:49:38;1.67;;;0.30;;
27127;SDS011;14660;49.008;8.390;2022-12-29T14:54:59;3.83;;;0.90;;
27127;SDS011;14660;49.008;8.390;2022-12-29T14:57:43;0.85;;;0.55;;
27127;SDS011;14660;49.008;8.390;2022-12-29T15:06:21;1.83;;;0.50;;
27127;SDS011;14660;49.008;8.390;2022-12-29T15:14:27;1.30;;;0.57;;
27127;SDS011;14660;49.008;8.390;2022-12-29T15:17:39;3.08;;;0.70;;
27127;SDS011;14660;49.008;8.390;2022-12-29T15:20:03;2.45;;;0.60;;
27127;SDS011;14660;49.008;8.390;2022-12-29T15:22:57;1.85;;;0.50;;
27127;SDS011;14660;49.008;8.390;2022-12-29T15:25:28;1.20;;;1.10;;
27127;SDS011;14660;49.008;8.390;2022-12-29T15:27:59;4.60;;;0.63;;
27127;SDS011;14660;49.008;8.390;2022-12-29T15:30:28;2.97;;;0.77;;
27127;SDS011;14660;49.008;8.390;2022-12-29T15:32:55;1.70;;;1.17;;
27127;SDS011;14660;49.008;8.390;2022-12-29T15:38:19;2.10;;;0.50;;
27127;SDS011;14660;49.008;8.390;2022-12-29T15:40:51;1.63;;;0.80;;
27127;SDS011;14660;49.008;8.390;2022-12-29T15:46:31;1.13;;;0.80;;
27127;SDS011;14660;49.008;8.390;2022-12-29T15:48:58;4.13;;;0.90;;
27127;SDS011;14660;49.008;8.390;2022-12-29T15:51:33;1.80;;;0.50;;
27127;SDS011;14660;49.008;8.390;2022-12-29T15:54:03;2.53;;;0.63;;
27127;SDS011;14660;49.008;8.390;2022-12-29T15:56:31;2.25;;;0.80;;
27127;SDS011;14660;49.008;8.390;2022-12-29T15:58:59;3.03;;;0.85;;
27127;SDS011;14660;49.008;8.390;2022-12-29T16:04:11;2.75;;;0.70;;
27127;SDS011;14660;49.008;8.390;2022-12-29T16:06:39;1.85;;;0.73;;
27127;SDS011;14660;49.008;8.390;2022-12-29T16:09:30;3.13;;;0.70;;
27127;SDS011;14660;49.008;8.390;2022-12-29T16:12:22;1.83;;;0.77;;
27127;SDS011;14660;49.008;8.390;2022-12-29T16:15:12;2.70;;;1.23;;
27127;SDS011;14660;49.008;8.390;2022-12-29T16:17:48;2.75;;;0.90;;
27127;SDS011;14660;49.008;8.390;2022-12-29T16:23:12;3.65;;;1.27;;
27127;SDS011;14660;49.008;8.390;2022-12-29T16:25:48;3.38;;;0.73;;
27127;SDS011;14660;49.008;8.390;2022-12-29T16:28:22;3.17;;;1.08;;
27127;SDS011;14660;49.008;8.390;2022-12-29T16:33:55;5.40;;;1.00;;
27127;SDS011;14660;49.008;8.390;2022-12-29T16:36:23;1.50;;;0.85;;
27127;SDS011;14660;49.008;8.390;2022-12-29T16:41:58;1.35;;;0.77;;
27127;SDS011;14660;49.008;8.390;2022-12-29T16:49:55;4.40;;;1.40;;
27127;SDS011;14660;49.008;8.390;2022-12-29T16:55:05;1.05;;;0.75;;
27127;SDS011;14660;49.008;8.390;2022-12-29T16:57:35;2.00;;;1.50;;
27127;SDS011;14660;49.008;8.390;2022-12-29T17:00:04;2.28;;;1.48;;
27127;SDS011;14660;49.008;8.390;2022-12-29T17:02:34;4.07;;;1.48;;
27127;SDS011;14660;49.008;8.390;2022-12-29T17:05:12;3.53;;;1.83;;
27127;SDS011;14660;49.008;8.390;2022-12-29T17:07:40;3.95;;;1.95;;
27127;SDS011;14660;49.008;8.390;2022-12-29T17:10:06;4.95;;;2.45;;
27127;SDS011;14660;49.008;8.390;2022-12-29T17:12:33;8.50;;;3.58;;
27127;SDS011;14660;49.008;8.390;2022-12-29T17:15:05;4.30;;;2.78;;
27127;SDS011;14660;49.008;8.390;2022-12-29T17:20:29;5.85;;;2.90;;
27127;SDS011;14660;49.008;8.390;2022-12-29T17:22:57;4.93;;;2.58;;
27127;SDS011;14660;49.008;8.390;2022-12-29T17:25:32;5.60;;;2.65;;
27127;SDS011;14660;49.008;8.390;2022-12-29T17:31:05;4.25;;;2.00;;
27127;SDS011;14660;49.008;8.390;2022-12-29T17:33:36;5.50;;;2.97;;
27127;SDS011;14660;49.008;8.390;2022-12-29T17:36:07;8.35;;;2.72;;
27127;SDS011;14660;49.008;8.390;2022-12-29T17:38:36;6.03;;;2.42;;
27127;SDS011;14660;49.008;8.390;2022-12-29T17:41:03;6.45;;;2.80;;
27127;SDS011;14660;49.008;8.390;2022-12-29T17:43:30;3.95;;;1.30;;
27127;SDS011;14660;49.008;8.390;2022-12-29T17:45:57;5.65;;;1.80;;
27127;SDS011;14660;49.008;8.390;2022-12-29T17:48:24;3.67;;;2.90;;
27127;SDS011;14660;49.008;8.390;2022-12-29T17:50:52;4.38;;;2.67;;
27127;SDS011;14660;49.008;8.390;2022-12-29T17:53:23;2.92;;;1.77;;
27127;SDS011;14660;49.008;8.390;2022-12-29T17:55:52;4.97;;;2.33;;
27127;SDS011;14660;49.008;8.390;2022-12-29T17:58:26;3.05;;;1.30;;
27127;SDS011;14660;49.008;8.390;2022-12-29T18:00:55;3.35;;;1.73;;
27127;SDS011;14660;49.008;8.390;2022-12-29T18:06:09;5.05;;;2.22;;
27127;SDS011;14660;49.008;8.390;2022-12-29T18:08:38;4.20;;;1.90;;
27127;SDS011;14660;49.008;8.390;2022-12-29T18:11:22;7.85;;;3.10;;
27127;SDS011;14660;49.008;8.390;2022-12-29T18:13:51;3.53;;;2.70;;
27127;SDS011;14660;49.008;8.390;2022-12-29T18:16:18;3.15;;;2.05;;
27127;SDS011;14660;49.008;8.390;2022-12-29T18:18:47;4.00;;;1.73;;
27127;SDS011;14660;49.008;8.390;2022-12-29T18:21:15;3.08;;;1.70;;
27127;SDS011;14660;49.008;8.390;2022-12-29T18:23:44;3.90;;;1.65;;
27127;SDS011;14660;49.008;8.390;2022-12-29T18:26:19;5.78;;;2.40;;
27127;SDS011;14660;49.008;8.390;2022-12-29T18:28:50;7.03;;;2.30;;
27127;SDS011;14660;49.008;8.390;2022-12-29T18:31:22;5.45;;;1.63;;
27127;SDS011;14660;49.008;8.390;2022-12-29T18:33:51;5.78;;;1.50;;
27127;SDS011;14660;49.008;8.390;2022-12-29T18:36:20;7.35;;;1.30;;
27127;SDS011;14660;49.008;8.390;2022-12-29T18:38:47;3.10;;;1.75;;
27127;SDS011;14660;49.008;8.390;2022-12-29T18:41:33;2.95;;;1.35;;
27127;SDS011;14660;49.008;8.390;2022-12-29T18:44:00;3.10;;;1.10;;
27127;SDS011;14660;49.008;8.390;2022-12-29T18:46:27;2.95;;;1.30;;
27127;SDS011;14660;49.008;8.390;2022-12-29T18:48:55;2.38;;;1.02;;
27127;SDS011;14660;49.008;8.390;2022-12-29T18:51:23;3.30;;;1.23;;
27127;SDS011;14660;49.008;8.390;2022-12-29T18:53:51;3.28;;;1.55;;
27127;SDS011;14660;49.008;8.390;2022-12-29T18:56:19;2.92;;;0.90;;
27127;SDS011;14660;49.008;8.390;2022-12-29T18:58:47;4.95;;;1.95;;
27127;SDS011;14660;49.008;8.390;2022-12-29T19:01:25;4.72;;;1.23;;
27127;SDS011;14660;49.008;8.390;2022-12-29T19:03:55;3.67;;;1.63;;
27127;SDS011;14660;49.008;8.390;2022-12-29T19:06:22;3.60;;;1.60;;
27127;SDS011;14660;49.008;8.390;2022-12-29T19:08:49;2.80;;;1.23;;
27127;SDS011;14660;49.008;8.390;2022-12-29T19:11:16;4.95;;;1.33;;
27127;SDS011;14660;49.008;8.390;2022-12-29T19:13:43;6.00;;;2.28;;
27127;SDS011;14660;49.008;8.390;2022-12-29T19:16:16;7.18;;;2.30;;
27127;SDS011;14660;49.008;8.390;2022-12-29T19:18:45;3.45;;;1.88;;
27127;SDS011;14660;49.008;8.390;2022-12-29T19:21:17;5.70;;;2.90;;
27127;SDS011;14660;49.008;8.390;2022-12-29T19:23:45;5.88;;;1.80;;
27127;SDS011;14660;49.008;8.390;2022-12-29T19:28:57;2.67;;;1.27;;
27127;SDS011;14660;49.008;8.390;2022-12-29T19:31:25;4.45;;;1.08;;
27127;SDS011;14660;49.008;8.390;2022-12-29T19:33:52;2.92;;;1.55;;
27127;SDS011;14660;49.008;8.390;2022-12-29T19:36:20;3.67;;;1.40;;
27127;SDS011;14660;49.008;8.390;2022-12-29T19:38:47;4.57;;;1.85;;
27127;SDS011;14660;49.008;8.390;2022-12-29T19:41:14;4.82;;;1.30;;
27127;SDS011;14660;49.008;8.390;2022-12-29T19:43:41;4.00;;;0.98;;